Time;durP1;ratioP1;P1;durP2;ratioP2;P2;SDS_P1;SDS_P2;PMS_P1;PMS_P2;Temp;Humidity;BMP_temperature;BMP_pressure;BME280_temperature;BME280_humidity;BME280_pressure;Samples;Min_cycle;Max_cycle;Signal;HPM_P1;HPM_P2
2023/12/09 00:02:01;;;;;;;18.98;11.20;;;3.30;99.90;;;;;;4911422;29;20067;-67
2023/12/09 00:04:33;;;;;;;19.92;12.13;;;3.40;99.90;;;;;;4910486;29;20045;-67
2023/12/09 00:07:05;;;;;;;22.02;13.00;;;3.40;99.90;;;;;;4898197;29;20588;-67
2023/12/09 00:09:37;;;;;;;19.38;12.00;;;3.40;99.90;;;;;;4909008;29;20040;-67
2023/12/09 00:12:09;;;;;;;18.70;11.60;;;3.40;99.90;;;;;;4908053;29;20044;-67
2023/12/09 00:14:36;;;;;;;21.05;13.07;;;3.30;99.90;;;;;;4910038;29;20123;-67
2023/12/09 00:17:07;;;;;;;17.30;11.60;;;3.30;99.90;;;;;;4910125;29;20048;-67
2023/12/09 00:19:34;;;;;;;17.63;11.27;;;3.30;99.90;;;;;;4910442;29;20123;-67
2023/12/09 00:22:06;;;;;;;16.25;10.68;;;3.30;99.90;;;;;;4915657;29;20072;-67
2023/12/09 00:24:38;;;;;;;18.10;10.85;;;3.30;99.90;;;;;;4915855;29;20040;-67
2023/12/09 00:27:10;;;;;;;20.02;11.55;;;3.30;99.90;;;;;;4925932;29;20064;-67
2023/12/09 00:29:42;;;;;;;18.67;11.23;;;3.30;99.90;;;;;;4916444;29;20048;-67
2023/12/09 00:32:14;;;;;;;20.88;12.38;;;3.30;99.90;;;;;;4899495;29;20626;-67
2023/12/09 00:34:40;;;;;;;20.27;11.77;;;3.30;99.90;;;;;;4913149;29;20656;-67
2023/12/09 00:37:12;;;;;;;21.73;12.77;;;3.30;99.90;;;;;;4916967;29;20048;-67
2023/12/09 00:39:44;;;;;;;18.33;11.30;;;3.30;99.90;;;;;;4912260;29;20137;-67
2023/12/09 00:42:16;;;;;;;17.55;11.23;;;3.30;99.90;;;;;;4914392;29;20139;-67
2023/12/09 00:44:48;;;;;;;21.63;12.20;;;3.30;99.90;;;;;;4914495;29;20390;-67
2023/12/09 00:47:15;;;;;;;18.02;11.07;;;3.30;99.90;;;;;;4911180;29;20139;-67
2023/12/09 00:49:47;;;;;;;17.60;10.70;;;3.30;99.90;;;;;;4913710;29;20067;-70
2023/12/09 00:52:19;;;;;;;21.10;11.52;;;3.30;99.90;;;;;;4915001;29;20063;-67
2023/12/09 00:54:50;;;;;;;19.55;11.10;;;3.40;99.90;;;;;;4911279;29;20052;-67
2023/12/09 00:57:24;;;;;;;20.83;12.18;;;3.40;99.90;;;;;;4903992;29;20052;-67
2023/12/09 00:59:56;;;;;;;21.00;10.43;;;3.40;99.90;;;;;;4917624;29;20044;-67
2023/12/09 01:02:28;;;;;;;20.17;12.15;;;3.40;99.90;;;;;;4916642;29;21140;-67
2023/12/09 01:04:59;;;;;;;20.55;10.95;;;3.40;99.90;;;;;;4917004;29;20043;-67
2023/12/09 01:07:31;;;;;;;22.60;11.95;;;3.40;99.90;;;;;;4910774;29;20044;-68
2023/12/09 01:10:05;;;;;;;23.88;12.00;;;3.40;99.90;;;;;;4912401;29;20051;-67
2023/12/09 01:12:32;;;;;;;23.42;12.77;;;3.40;99.90;;;;;;4913302;29;20555;-67
2023/12/09 01:15:05;;;;;;;23.75;12.88;;;3.50;99.90;;;;;;4928414;29;20048;-67
2023/12/09 01:17:36;;;;;;;22.67;13.57;;;3.40;99.90;;;;;;4912501;29;20044;-67
2023/12/09 01:20:09;;;;;;;24.67;12.43;;;3.40;99.90;;;;;;4910037;29;20047;-67
2023/12/09 01:22:36;;;;;;;23.75;13.10;;;3.40;99.90;;;;;;4912027;29;20046;-67
2023/12/09 01:25:08;;;;;;;22.23;12.57;;;3.40;99.90;;;;;;4914558;29;20123;-67
2023/12/09 01:27:40;;;;;;;20.25;12.30;;;3.50;99.90;;;;;;4909017;29;20051;-67
2023/12/09 01:30:12;;;;;;;22.20;12.52;;;3.50;99.90;;;;;;4912497;29;20048;-67
2023/12/09 01:32:44;;;;;;;19.80;11.23;;;3.50;99.90;;;;;;4915558;29;20043;-67
2023/12/09 01:35:16;;;;;;;19.70;10.77;;;3.50;99.90;;;;;;4910652;29;20403;-67
2023/12/09 01:37:43;;;;;;;18.88;11.10;;;3.50;99.90;;;;;;4912943;29;20120;-68
2023/12/09 01:40:15;;;;;;;20.90;11.82;;;3.40;99.90;;;;;;4909767;29;20041;-68
2023/12/09 01:42:47;;;;;;;22.23;13.05;;;3.40;99.90;;;;;;4914189;29;20111;-67
2023/12/09 01:45:13;;;;;;;20.02;10.63;;;3.40;99.90;;;;;;4917599;29;20165;-67
2023/12/09 01:47:47;;;;;;;24.20;11.40;;;3.50;99.90;;;;;;4912532;29;20048;-67
2023/12/09 01:50:19;;;;;;;19.75;10.93;;;3.50;99.90;;;;;;4916417;29;20051;-68
2023/12/09 01:52:50;;;;;;;20.15;11.10;;;3.50;99.90;;;;;;4913636;29;20551;-67
2023/12/09 01:55:24;;;;;;;22.13;11.95;;;3.50;99.90;;;;;;4923982;29;20138;-67
2023/12/09 01:57:55;;;;;;;20.08;11.90;;;3.40;99.90;;;;;;4915122;29;20044;-68
2023/12/09 02:00:27;;;;;;;20.20;11.88;;;3.40;99.90;;;;;;4913898;29;20059;-67
2023/12/09 02:03:00;;;;;;;20.38;11.77;;;3.40;99.90;;;;;;4911945;29;20041;-67
2023/12/09 02:05:32;;;;;;;23.30;12.43;;;3.40;99.90;;;;;;4912165;29;20122;-67
2023/12/09 02:08:04;;;;;;;20.60;11.65;;;3.30;99.90;;;;;;4913223;29;20054;-69
2023/12/09 02:10:36;;;;;;;23.67;13.55;;;3.30;99.90;;;;;;4909287;29;20143;-67
2023/12/09 02:13:23;;;;;;;20.10;12.30;;;3.30;99.90;;;;;;4914028;29;20100;-67
2023/12/09 02:16:06;;;;;;;21.90;12.02;;;3.30;99.90;;;;;;4912491;29;20425;-68
2023/12/09 02:18:40;;;;;;;24.77;12.00;;;3.30;99.90;;;;;;4914911;29;20509;-67
2023/12/09 02:21:12;;;;;;;19.90;11.75;;;3.30;99.90;;;;;;4903076;29;20517;-67
2023/12/09 02:23:44;;;;;;;22.67;12.45;;;3.30;99.90;;;;;;4910988;29;20489;-67
2023/12/09 02:26:25;;;;;;;26.70;12.13;;;3.30;99.90;;;;;;4911902;29;20075;-67
2023/12/09 02:29:03;;;;;;;19.70;11.73;;;3.20;99.90;;;;;;4911994;29;20044;-68
2023/12/09 02:31:38;;;;;;;24.23;12.00;;;3.20;99.90;;;;;;4908617;29;20522;-68
2023/12/09 02:34:11;;;;;;;21.55;10.68;;;3.20;99.90;;;;;;4899295;29;20044;-67
2023/12/09 02:36:45;;;;;;;22.50;11.40;;;3.20;99.90;;;;;;4913580;29;20056;-67
2023/12/09 02:39:18;;;;;;;20.63;11.70;;;3.20;99.90;;;;;;4913954;29;20044;-68
2023/12/09 02:41:52;;;;;;;18.13;11.18;;;3.20;99.90;;;;;;4926512;29;20115;-67
2023/12/09 02:44:25;;;;;;;22.40;12.45;;;3.20;99.90;;;;;;4913938;29;20139;-68
2023/12/09 02:46:57;;;;;;;22.98;12.18;;;3.20;99.90;;;;;;4911935;29;20132;-68
2023/12/09 02:49:28;;;;;;;22.88;12.23;;;3.20;99.90;;;;;;4913856;29;20420;-67
2023/12/09 02:52:00;;;;;;;19.65;11.82;;;3.20;99.90;;;;;;4910885;29;20052;-67
2023/12/09 02:54:32;;;;;;;24.95;11.32;;;3.20;99.90;;;;;;4909149;29;20052;-68
2023/12/09 02:57:04;;;;;;;22.00;11.85;;;3.30;99.90;;;;;;4909609;29;20052;-68
2023/12/09 02:59:36;;;;;;;23.10;12.95;;;3.30;99.90;;;;;;4908709;29;20040;-67
2023/12/09 03:02:08;;;;;;;21.50;12.20;;;3.30;99.90;;;;;;4910874;29;20067;-67
2023/12/09 03:04:39;;;;;;;20.65;11.32;;;3.40;99.90;;;;;;4911454;29;20051;-67
2023/12/09 03:07:11;;;;;;;20.95;11.90;;;3.40;99.90;;;;;;4913900;29;20047;-68
2023/12/09 03:09:38;;;;;;;20.25;13.13;;;3.40;99.90;;;;;;4912409;29;20052;-67
2023/12/09 03:12:10;;;;;;;18.15;10.88;;;3.40;99.90;;;;;;4913339;29;20043;-67
2023/12/09 03:14:42;;;;;;;21.27;11.55;;;3.40;99.90;;;;;;4913055;29;20058;-67
2023/12/09 03:17:14;;;;;;;21.70;11.68;;;3.40;99.90;;;;;;4912692;29;20410;-67
2023/12/09 03:19:46;;;;;;;25.00;11.18;;;3.50;99.90;;;;;;4904216;29;20063;-67
2023/12/09 03:22:18;;;;;;;18.58;10.75;;;3.40;99.90;;;;;;4911212;29;20041;-67
2023/12/09 03:24:50;;;;;;;18.35;10.98;;;3.50;99.90;;;;;;4907848;29;20056;-67
2023/12/09 03:27:22;;;;;;;18.58;10.25;;;3.50;99.90;;;;;;4909034;29;20058;-67
2023/12/09 03:29:54;;;;;;;21.13;11.40;;;3.50;99.90;;;;;;4911052;29;20075;-67
2023/12/09 03:32:25;;;;;;;20.00;10.32;;;3.40;99.90;;;;;;4912550;29;20127;-67
2023/12/09 03:34:57;;;;;;;19.33;10.13;;;3.40;99.90;;;;;;4910998;29;20066;-67
2023/12/09 03:37:24;;;;;;;20.20;11.10;;;3.40;99.90;;;;;;4914236;29;20047;-67
2023/12/09 03:39:56;;;;;;;20.85;10.95;;;3.40;99.90;;;;;;4909092;29;20037;-67
2023/12/09 03:42:28;;;;;;;16.52;10.10;;;3.40;99.90;;;;;;4909338;29;20044;-67
2023/12/09 03:44:59;;;;;;;19.38;9.93;;;3.40;99.90;;;;;;4911104;29;20051;-68
2023/12/09 03:47:31;;;;;;;17.65;10.82;;;3.30;99.90;;;;;;4908031;29;20119;-67
2023/12/09 03:50:03;;;;;;;19.98;10.75;;;3.30;99.90;;;;;;4909802;29;20545;-67
2023/12/09 03:52:35;;;;;;;19.55;10.68;;;3.20;99.90;;;;;;4909632;29;20404;-67
2023/12/09 03:55:07;;;;;;;19.63;10.70;;;3.20;99.90;;;;;;4897860;29;20107;-67
2023/12/09 03:57:39;;;;;;;19.35;10.65;;;3.20;99.90;;;;;;4903181;29;20130;-67
2023/12/09 04:00:12;;;;;;;20.08;11.30;;;3.10;99.90;;;;;;4897739;29;20055;-67
2023/12/09 04:02:38;;;;;;;18.80;11.40;;;3.10;99.90;;;;;;4913526;29;20126;-67
2023/12/09 04:05:10;;;;;;;17.83;10.10;;;3.00;99.90;;;;;;4913605;29;20040;-67
2023/12/09 04:07:37;;;;;;;18.55;10.05;;;3.00;99.90;;;;;;4912435;29;20051;-67
2023/12/09 04:10:09;;;;;;;17.67;9.13;;;3.00;99.90;;;;;;4910683;29;20127;-67
2023/12/09 04:12:41;;;;;;;19.35;11.10;;;3.00;99.90;;;;;;4911227;29;20048;-67
2023/12/09 04:15:13;;;;;;;18.38;10.65;;;3.00;99.90;;;;;;4910563;29;20052;-67
2023/12/09 04:17:46;;;;;;;19.90;10.45;;;3.00;99.90;;;;;;4907869;29;20052;-67
2023/12/09 04:20:17;;;;;;;18.20;9.82;;;3.00;99.90;;;;;;4911861;29;20048;-67
2023/12/09 04:22:49;;;;;;;19.13;10.85;;;3.00;99.90;;;;;;4892576;29;20048;-67
2023/12/09 04:25:16;;;;;;;20.35;11.05;;;3.10;99.90;;;;;;4908965;29;20063;-67
2023/12/09 04:27:48;;;;;;;22.90;11.10;;;3.20;99.90;;;;;;4910723;29;20398;-67
2023/12/09 04:30:15;;;;;;;21.52;11.30;;;3.20;99.90;;;;;;4912977;29;20048;-67
2023/12/09 04:32:48;;;;;;;18.45;10.40;;;3.10;99.90;;;;;;4912792;29;20127;-67
2023/12/09 04:35:20;;;;;;;23.83;10.73;;;3.10;99.90;;;;;;4910991;29;20050;-67
2023/12/09 04:37:51;;;;;;;24.48;11.85;;;3.20;99.90;;;;;;4908539;29;20055;-67
2023/12/09 04:40:24;;;;;;;22.90;12.00;;;3.10;99.90;;;;;;4911382;29;20040;-67
2023/12/09 04:42:55;;;;;;;22.45;12.35;;;3.20;99.90;;;;;;4912317;29;20055;-67
2023/12/09 04:45:27;;;;;;;26.33;12.70;;;3.20;99.90;;;;;;4906503;29;20124;-67
2023/12/09 04:47:59;;;;;;;23.33;12.15;;;3.20;99.90;;;;;;4910949;29;20533;-67
2023/12/09 04:50:31;;;;;;;26.90;13.40;;;3.20;99.90;;;;;;4910885;29;20048;-67
2023/12/09 04:53:04;;;;;;;30.58;12.68;;;3.10;99.90;;;;;;4907765;29;20604;-67
2023/12/09 04:55:30;;;;;;;23.08;11.40;;;3.10;99.90;;;;;;4913921;29;20055;-67
2023/12/09 04:57:57;;;;;;;25.20;13.07;;;3.10;99.90;;;;;;4910735;29;20815;-67
2023/12/09 05:00:29;;;;;;;24.98;12.05;;;3.10;99.90;;;;;;4912935;29;20044;-67
2023/12/09 05:03:01;;;;;;;26.58;12.63;;;3.10;99.90;;;;;;4911855;29;20517;-67
2023/12/09 05:05:33;;;;;;;24.05;11.98;;;3.00;99.90;;;;;;4913573;29;20066;-67
2023/12/09 05:08:04;;;;;;;24.95;11.65;;;3.00;99.90;;;;;;4913120;29;20037;-69
2023/12/09 05:10:36;;;;;;;24.38;11.45;;;3.00;99.90;;;;;;4913509;29;20128;-67
2023/12/09 05:13:08;;;;;;;26.08;11.30;;;3.10;99.90;;;;;;4913651;29;20059;-67
2023/12/09 05:15:40;;;;;;;21.58;11.27;;;3.10;99.90;;;;;;4913527;29;20055;-67
2023/12/09 05:18:12;;;;;;;29.88;12.00;;;3.10;99.90;;;;;;4928908;29;20048;-67
2023/12/09 05:20:44;;;;;;;23.63;10.93;;;3.00;99.90;;;;;;4916593;29;20063;-67
2023/12/09 05:23:16;;;;;;;27.67;11.30;;;3.10;99.90;;;;;;4917030;29;20505;-67
2023/12/09 05:25:49;;;;;;;21.90;10.52;;;3.10;99.90;;;;;;4915633;29;20099;-67
2023/12/09 05:28:21;;;;;;;24.25;11.20;;;3.10;99.90;;;;;;4908904;29;20055;-67
2023/12/09 05:30:48;;;;;;;23.45;10.30;;;3.10;99.90;;;;;;4912728;29;20127;-67
2023/12/09 05:33:20;;;;;;;19.63;9.98;;;3.10;99.90;;;;;;4915922;29;20406;-67
2023/12/09 05:35:52;;;;;;;19.55;9.82;;;3.10;99.90;;;;;;4899193;29;20048;-67
2023/12/09 05:38:24;;;;;;;20.20;10.25;;;3.00;99.90;;;;;;4913185;29;20059;-68
2023/12/09 05:40:56;;;;;;;21.75;9.70;;;3.00;99.90;;;;;;4914511;29;20072;-67
2023/12/09 05:43:28;;;;;;;25.60;10.20;;;3.00;99.90;;;;;;4925003;29;20040;-67
2023/12/09 05:46:00;;;;;;;24.58;10.50;;;3.00;99.90;;;;;;4914421;29;20052;-67
2023/12/09 05:48:33;;;;;;;25.83;10.13;;;3.10;99.90;;;;;;4915791;29;20044;-67
2023/12/09 05:51:00;;;;;;;22.08;10.13;;;3.20;99.90;;;;;;4915726;29;20044;-68
2023/12/09 05:53:27;;;;;;;26.88;11.48;;;3.20;99.90;;;;;;4910634;29;20071;-67
2023/12/09 05:55:59;;;;;;;23.00;10.10;;;3.30;99.90;;;;;;4914600;29;20046;-67
2023/12/09 05:58:26;;;;;;;26.55;11.95;;;3.30;99.90;;;;;;4913102;29;20054;-68
2023/12/09 06:00:53;;;;;;;25.85;11.55;;;3.30;99.90;;;;;;4905919;29;20072;-67
2023/12/09 06:03:25;;;;;;;33.03;13.05;;;3.30;99.90;;;;;;4910582;29;20072;-67
2023/12/09 06:05:58;;;;;;;26.02;11.82;;;3.30;99.90;;;;;;4911569;29;20413;-68
2023/12/09 06:08:29;;;;;;;26.15;11.38;;;3.30;99.90;;;;;;4905449;29;20055;-67
2023/12/09 06:11:02;;;;;;;24.98;11.55;;;3.20;99.90;;;;;;4912538;29;20052;-67
2023/12/09 06:13:34;;;;;;;27.75;11.43;;;3.20;99.90;;;;;;4914514;29;20052;-67
2023/12/09 06:16:07;;;;;;;25.35;10.40;;;3.20;99.90;;;;;;4908924;29;20049;-67
2023/12/09 06:18:39;;;;;;;21.23;9.68;;;3.10;99.90;;;;;;4915050;29;20055;-67
2023/12/09 06:21:21;;;;;;;22.40;10.75;;;3.10;99.90;;;;;;4912915;29;20048;-67
2023/12/09 06:23:49;;;;;;;27.10;11.70;;;3.00;99.90;;;;;;4909155;29;20048;-67
2023/12/09 06:26:21;;;;;;;23.52;10.98;;;3.00;99.90;;;;;;4914927;29;20150;-68
2023/12/09 06:28:53;;;;;;;21.55;10.38;;;3.00;99.90;;;;;;4898886;29;20055;-67
2023/12/09 06:31:19;;;;;;;21.85;10.80;;;3.00;99.90;;;;;;4913211;29;20040;-67
2023/12/09 06:33:46;;;;;;;28.20;11.65;;;3.00;99.90;;;;;;4910505;29;20492;-67
2023/12/09 06:36:13;;;;;;;22.77;11.40;;;3.00;99.90;;;;;;4898293;29;20131;-67
2023/12/09 06:38:45;;;;;;;27.35;11.77;;;2.90;99.90;;;;;;4899441;29;20139;-67
2023/12/09 06:41:17;;;;;;;25.40;10.73;;;2.90;99.90;;;;;;4914684;29;20143;-67
2023/12/09 06:43:49;;;;;;;25.55;11.57;;;2.90;99.90;;;;;;4914540;29;20542;-67
2023/12/09 06:46:20;;;;;;;27.17;12.02;;;2.90;99.90;;;;;;4912348;29;20059;-67
2023/12/09 06:48:52;;;;;;;26.60;11.45;;;2.90;99.90;;;;;;4909921;29;20417;-67
2023/12/09 06:51:25;;;;;;;27.42;11.68;;;3.00;99.90;;;;;;4912902;29;20048;-67
2023/12/09 06:53:57;;;;;;;27.38;11.50;;;3.00;99.90;;;;;;4909882;29;20639;-67
2023/12/09 06:56:29;;;;;;;29.08;11.40;;;3.10;99.90;;;;;;4899469;29;20051;-67
2023/12/09 06:59:00;;;;;;;32.50;12.38;;;3.10;99.90;;;;;;4917937;29;20040;-67
2023/12/09 07:01:32;;;;;;;34.28;12.77;;;3.10;99.90;;;;;;4914522;29;20044;-67
2023/12/09 07:04:04;;;;;;;33.08;12.60;;;3.10;99.90;;;;;;4904406;29;20063;-67
2023/12/09 07:06:36;;;;;;;27.88;11.88;;;3.10;99.90;;;;;;4914355;29;20139;-67
2023/12/09 07:09:09;;;;;;;29.80;11.30;;;3.10;99.90;;;;;;4899797;29;20046;-67
2023/12/09 07:11:41;;;;;;;29.52;12.27;;;3.10;99.90;;;;;;4911688;29;20504;-67
2023/12/09 07:14:08;;;;;;;28.73;11.93;;;3.10;99.90;;;;;;4912928;29;20127;-67
2023/12/09 07:16:40;;;;;;;28.58;13.20;;;3.10;99.90;;;;;;4911795;29;20040;-67
2023/12/09 07:19:07;;;;;;;30.77;11.43;;;3.10;99.90;;;;;;4908647;29;20068;-67
2023/12/09 07:21:39;;;;;;;35.33;13.35;;;3.10;99.90;;;;;;4910844;29;20044;-67
2023/12/09 07:24:11;;;;;;;29.60;11.77;;;3.10;99.90;;;;;;4911239;29;20055;-67
2023/12/09 07:26:43;;;;;;;28.35;11.43;;;3.10;99.90;;;;;;4898652;29;20059;-67
2023/12/09 07:29:15;;;;;;;29.27;11.45;;;3.20;99.90;;;;;;4907037;29;20049;-67
2023/12/09 07:31:47;;;;;;;30.48;12.85;;;3.20;99.90;;;;;;4913505;29;20536;-67
2023/12/09 07:34:20;;;;;;;27.23;11.38;;;3.30;99.90;;;;;;4903389;29;20425;-68
2023/12/09 07:36:47;;;;;;;30.60;13.07;;;3.30;99.90;;;;;;4908562;29;20092;-67
2023/12/09 07:39:13;;;;;;;22.17;10.80;;;3.30;99.90;;;;;;4897013;29;20044;-67
2023/12/09 07:41:41;;;;;;;26.45;10.98;;;3.30;99.90;;;;;;4913674;29;20044;-67
2023/12/09 07:44:13;;;;;;;24.15;9.85;;;3.30;99.90;;;;;;4895665;29;20528;-67
2023/12/09 07:46:45;;;;;;;23.58;9.85;;;3.40;99.90;;;;;;4918060;29;20044;-67
2023/12/09 07:49:12;;;;;;;27.15;11.00;;;3.40;99.90;;;;;;4910824;29;20044;-67
2023/12/09 07:51:44;;;;;;;24.42;11.32;;;3.40;99.90;;;;;;4911615;29;20501;-67
2023/12/09 07:54:16;;;;;;;27.48;11.60;;;3.50;99.90;;;;;;4912519;29;20052;-67
2023/12/09 07:56:48;;;;;;;23.35;10.93;;;3.50;99.90;;;;;;4913606;29;20067;-68
2023/12/09 07:59:20;;;;;;;22.80;10.10;;;3.50;99.90;;;;;;4903952;29;20063;-68
2023/12/09 08:01:52;;;;;;;22.42;9.68;;;3.50;99.90;;;;;;4913541;29;20052;-67
2023/12/09 08:04:19;;;;;;;25.45;11.63;;;3.50;99.90;;;;;;4911015;29;20491;-67
2023/12/09 08:06:52;;;;;;;20.60;9.93;;;3.50;99.90;;;;;;4913393;29;20501;-67
2023/12/09 08:09:19;;;;;;;36.30;15.45;;;3.60;99.90;;;;;;4909893;29;20053;-67
2023/12/09 08:11:51;;;;;;;23.75;11.30;;;3.70;99.90;;;;;;4909217;29;20037;-69
2023/12/09 08:14:23;;;;;;;27.52;11.63;;;3.70;99.90;;;;;;4911879;29;20041;-65
2023/12/09 08:16:55;;;;;;;27.05;10.90;;;3.70;99.90;;;;;;4909960;29;20533;-67
2023/12/09 08:19:27;;;;;;;23.63;12.60;;;3.70;99.90;;;;;;4913157;29;20040;-67
2023/12/09 08:21:59;;;;;;;35.55;15.20;;;3.70;99.90;;;;;;4910590;29;20115;-67
2023/12/09 08:24:32;;;;;;;16.50;8.43;;;3.70;99.90;;;;;;4898087;29;20055;-67
2023/12/09 08:26:58;;;;;;;28.90;13.18;;;3.80;99.90;;;;;;4912813;29;20627;-67
2023/12/09 08:29:30;;;;;;;88.25;20.13;;;3.90;99.90;;;;;;4910686;29;20036;-67
2023/12/09 08:32:03;;;;;;;32.17;13.50;;;4.00;99.90;;;;;;4913367;29;20048;-66
2023/12/09 08:34:35;;;;;;;20.42;10.52;;;4.10;99.90;;;;;;4910994;29;20413;-67
2023/12/09 08:37:07;;;;;;;17.08;8.60;;;4.10;99.90;;;;;;4907637;29;20044;-67
2023/12/09 08:39:40;;;;;;;21.65;10.73;;;4.10;99.90;;;;;;4910803;29;20032;-67
2023/12/09 08:42:07;;;;;;;20.20;9.20;;;4.10;99.90;;;;;;4914569;29;20036;-67
2023/12/09 08:44:34;;;;;;;20.52;9.15;;;4.10;99.90;;;;;;4913848;29;20047;-67
2023/12/09 08:47:01;;;;;;;16.27;8.75;;;4.00;99.90;;;;;;4912844;29;20036;-67
2023/12/09 08:49:28;;;;;;;12.63;7.10;;;4.00;99.90;;;;;;4915223;29;20040;-67
2023/12/09 08:52:00;;;;;;;16.85;7.90;;;3.80;99.90;;;;;;4914246;29;20062;-67
2023/12/09 08:54:32;;;;;;;14.32;7.68;;;3.80;99.90;;;;;;4914071;29;20048;-67
2023/12/09 08:57:04;;;;;;;13.23;8.15;;;3.80;99.90;;;;;;4913807;29;20052;-68
2023/12/09 08:59:36;;;;;;;14.38;7.47;;;3.80;99.90;;;;;;4909331;29;20053;-68
2023/12/09 09:02:07;;;;;;;14.30;7.13;;;3.80;99.90;;;;;;4915239;29;20040;-68
2023/12/09 09:04:40;;;;;;;14.40;8.27;;;3.90;99.90;;;;;;4914274;29;20048;-67
2023/12/09 09:07:11;;;;;;;13.07;6.82;;;4.00;99.90;;;;;;4915060;29;20119;-68
2023/12/09 09:09:39;;;;;;;13.48;7.55;;;4.00;99.90;;;;;;4915650;29;20043;-67
2023/12/09 09:12:11;;;;;;;13.13;7.95;;;4.00;99.90;;;;;;4928506;29;20048;-67
2023/12/09 09:14:43;;;;;;;12.50;7.82;;;4.10;99.90;;;;;;4915574;29;20042;-67
2023/12/09 09:17:10;;;;;;;13.13;7.85;;;4.10;99.90;;;;;;4912142;29;20037;-68
2023/12/09 09:19:43;;;;;;;14.23;7.72;;;4.10;99.90;;;;;;4913553;29;20058;-68
2023/12/09 09:22:15;;;;;;;12.27;6.90;;;4.10;99.90;;;;;;4914074;29;20505;-68
2023/12/09 09:24:47;;;;;;;11.95;6.95;;;4.00;99.90;;;;;;4913394;29;20060;-67
2023/12/09 09:27:19;;;;;;;12.10;6.85;;;4.00;99.90;;;;;;4895244;29;20054;-68
2023/12/09 09:29:51;;;;;;;13.48;7.65;;;4.00;99.90;;;;;;4911113;29;20032;-68
2023/12/09 09:32:23;;;;;;;14.75;7.80;;;4.10;99.90;;;;;;4937205;28;20041;-68
2023/12/09 09:34:55;;;;;;;13.05;7.35;;;4.10;99.90;;;;;;4911796;29;20052;-67
2023/12/09 09:37:28;;;;;;;11.43;7.28;;;4.10;99.90;;;;;;4909302;29;20510;-67
2023/12/09 09:40:04;;;;;;;12.10;7.70;;;4.20;99.90;;;;;;4914904;29;20148;-67
2023/12/09 09:42:59;;;;;;;12.73;7.97;;;4.30;99.90;;;;;;4902373;29;20052;-68
2023/12/09 09:45:27;;;;;;;11.60;7.47;;;4.30;99.90;;;;;;4912079;29;20040;-67
2023/12/09 09:48:06;;;;;;;14.70;7.78;;;4.30;99.90;;;;;;4917649;29;20047;-67
2023/12/09 09:50:44;;;;;;;13.27;7.32;;;4.20;99.90;;;;;;4912432;29;20072;-67
2023/12/09 09:53:34;;;;;;;13.35;7.82;;;4.20;99.90;;;;;;4923429;29;20044;-67
2023/12/09 09:56:07;;;;;;;12.55;7.45;;;4.30;99.90;;;;;;4921076;29;20119;-67
2023/12/09 09:58:40;;;;;;;13.30;7.55;;;4.30;99.90;;;;;;4910513;29;20512;-67
2023/12/09 10:01:14;;;;;;;13.25;8.15;;;4.40;99.90;;;;;;4928213;29;20055;-67
2023/12/09 10:03:46;;;;;;;;;;;4.30;99.90;;;;;;4915622;29;20055;-67
2023/12/09 10:06:18;;;;;;;13.05;7.95;;;4.30;99.90;;;;;;4899557;29;19922;-67
2023/12/09 10:08:51;;;;;;;11.27;7.28;;;4.30;99.90;;;;;;4913140;29;20036;-67
2023/12/09 10:11:23;;;;;;;12.48;7.97;;;4.30;99.90;;;;;;4909013;29;20039;-67
2023/12/09 10:13:50;;;;;;;11.25;7.90;;;4.30;99.90;;;;;;4909708;29;20607;-67
2023/12/09 10:16:22;;;;;;;10.63;7.30;;;4.30;99.90;;;;;;4911361;29;20433;-67
2023/12/09 10:18:49;;;;;;;11.98;8.00;;;4.20;99.90;;;;;;4911307;29;20047;-67
2023/12/09 10:21:21;;;;;;;12.10;7.05;;;4.20;99.90;;;;;;4912863;29;20047;-67
2023/12/09 10:23:53;;;;;;;12.73;7.90;;;4.30;99.90;;;;;;4914341;29;20437;-67
2023/12/09 10:26:25;;;;;;;13.25;7.80;;;4.40;99.90;;;;;;4914585;29;20565;-67
2023/12/09 10:28:57;;;;;;;12.88;7.57;;;4.50;99.90;;;;;;4914681;29;20122;-67
2023/12/09 10:31:30;;;;;;;10.48;7.40;;;4.50;99.90;;;;;;4913200;29;20048;-67
2023/12/09 10:33:57;;;;;;;13.50;8.88;;;4.50;99.90;;;;;;4937576;29;20055;-67
2023/12/09 10:36:32;;;;;;;10.25;6.43;;;4.50;99.90;;;;;;4914774;29;20145;-67
2023/12/09 10:38:59;;;;;;;13.18;8.80;;;4.50;99.90;;;;;;4914045;29;20128;-67
2023/12/09 10:41:32;;;;;;;11.00;7.25;;;4.50;99.90;;;;;;4899475;29;20044;-67
2023/12/09 10:44:04;;;;;;;15.32;7.90;;;4.50;99.90;;;;;;4925918;29;20047;-67
2023/12/09 10:46:36;;;;;;;9.05;6.30;;;4.40;99.90;;;;;;4895439;29;20071;-67
2023/12/09 10:49:07;;;;;;;10.32;6.88;;;4.40;99.90;;;;;;4912944;29;20048;-67
2023/12/09 10:51:40;;;;;;;11.10;7.47;;;4.40;99.90;;;;;;4899471;29;20062;-67
2023/12/09 10:54:12;;;;;;;11.00;6.53;;;4.40;99.90;;;;;;4915161;29;20052;-67
2023/12/09 10:56:44;;;;;;;11.35;7.18;;;4.50;99.90;;;;;;4915583;29;20051;-67
2023/12/09 10:59:20;;;;;;;10.88;6.57;;;4.50;99.90;;;;;;4914325;29;20040;-67
2023/12/09 11:01:52;;;;;;;10.13;6.13;;;4.60;99.90;;;;;;4914019;29;20036;-67
2023/12/09 11:04:24;;;;;;;11.18;6.88;;;4.60;99.90;;;;;;4927138;29;20041;-67
2023/12/09 11:07:02;;;;;;;10.20;6.55;;;4.70;99.90;;;;;;4914151;29;20136;-67
2023/12/09 11:09:34;;;;;;;9.35;6.13;;;4.80;99.90;;;;;;4915369;29;20575;-67
2023/12/09 11:12:01;;;;;;;9.48;5.65;;;4.80;99.90;;;;;;4915320;29;20052;-67
2023/12/09 11:14:34;;;;;;;10.30;6.82;;;4.80;99.90;;;;;;4912624;29;20059;-67
2023/12/09 11:17:33;;;;;;;13.52;8.55;;;4.90;99.90;;;;;;4910176;29;20056;-67
2023/12/09 11:20:13;;;;;;;13.77;9.55;;;5.00;99.90;;;;;;4911643;29;20051;-67
2023/12/09 11:22:46;;;;;;;27.60;16.13;;;5.00;99.90;;;;;;4896712;29;20059;-67
2023/12/09 11:25:18;;;;;;;33.13;18.90;;;5.10;99.90;;;;;;4910164;29;20036;-67
2023/12/09 11:27:49;;;;;;;51.85;30.90;;;5.20;99.90;;;;;;4913409;29;20047;-67
2023/12/09 11:30:33;;;;;;;31.33;20.13;;;5.20;99.90;;;;;;4905196;29;20088;-67
2023/12/09 11:33:05;;;;;;;24.65;14.45;;;5.30;99.90;;;;;;4915358;29;20075;-67
2023/12/09 11:35:38;;;;;;;18.02;10.77;;;5.30;99.90;;;;;;4914474;29;20051;-67
2023/12/09 11:38:12;;;;;;;19.08;12.10;;;5.30;99.90;;;;;;4923202;29;20040;-67
2023/12/09 11:40:45;;;;;;;24.10;14.95;;;5.40;99.90;;;;;;4912584;29;20040;-67
2023/12/09 11:43:17;;;;;;;23.67;13.40;;;5.50;99.90;;;;;;4912998;29;20695;-67
2023/12/09 11:45:50;;;;;;;26.90;13.68;;;5.60;99.90;;;;;;4910967;29;20043;-67
2023/12/09 11:48:18;;;;;;;23.13;13.93;;;5.60;99.90;;;;;;4914293;29;20044;-67
2023/12/09 11:50:50;;;;;;;22.67;13.53;;;5.70;99.90;;;;;;4910490;29;20521;-67
2023/12/09 11:53:21;;;;;;;21.67;13.43;;;5.70;99.90;;;;;;4917852;29;20107;-67
2023/12/09 11:55:53;;;;;;;20.60;12.55;;;5.70;99.90;;;;;;4913128;29;20047;-67
2023/12/09 11:58:25;;;;;;;18.90;11.65;;;5.80;99.90;;;;;;4910490;29;20951;-67
2023/12/09 12:00:57;;;;;;;15.82;11.10;;;5.80;99.90;;;;;;4912190;29;20044;-67
2023/12/09 12:03:29;;;;;;;18.90;11.43;;;5.90;99.90;;;;;;4899246;29;20045;-67
2023/12/09 12:06:02;;;;;;;21.45;11.88;;;5.90;99.90;;;;;;4911877;29;20147;-67
2023/12/09 12:08:34;;;;;;;19.60;12.63;;;6.00;99.90;;;;;;4907607;29;20123;-67
2023/12/09 12:11:03;;;;;;;16.73;11.18;;;6.10;99.90;;;;;;4914970;29;20046;-67
2023/12/09 12:13:35;;;;;;;18.70;10.70;;;6.10;99.90;;;;;;4912720;29;20044;-67
2023/12/09 12:16:08;;;;;;;15.48;10.40;;;6.10;99.90;;;;;;4917413;29;20135;-67
2023/12/09 12:18:35;;;;;;;17.98;10.75;;;6.10;99.90;;;;;;4913883;29;20147;-67
2023/12/09 12:21:07;;;;;;;18.00;11.65;;;6.00;99.90;;;;;;4914177;29;20139;-67
2023/12/09 12:23:35;;;;;;;15.93;11.35;;;6.10;99.90;;;;;;4924608;29;20478;-67
2023/12/09 12:26:09;;;;;;;13.63;8.97;;;6.10;99.90;;;;;;4913531;29;20048;-67
2023/12/09 12:28:36;;;;;;;17.10;11.85;;;6.10;99.90;;;;;;4912529;29;20036;-67
2023/12/09 12:31:10;;;;;;;17.52;10.45;;;6.20;99.90;;;;;;4909596;29;20044;-67
2023/12/09 12:33:42;;;;;;;17.52;11.40;;;6.30;99.90;;;;;;4912387;29;20052;-67
2023/12/09 12:36:15;;;;;;;23.05;14.20;;;6.40;99.90;;;;;;4912179;29;20050;-67
2023/12/09 12:38:49;;;;;;;22.50;13.60;;;6.40;99.90;;;;;;4908761;29;20044;-67
2023/12/09 12:41:21;;;;;;;15.02;9.95;;;6.50;99.90;;;;;;4913669;29;20048;-67
2023/12/09 12:43:53;;;;;;;13.20;8.55;;;6.50;99.90;;;;;;4911127;29;20044;-67
2023/12/09 12:46:26;;;;;;;11.85;7.90;;;6.50;99.90;;;;;;4912937;29;20131;-67
2023/12/09 12:48:53;;;;;;;12.18;8.38;;;6.50;99.90;;;;;;4914024;29;20127;-67
2023/12/09 12:51:25;;;;;;;12.65;7.72;;;6.50;99.90;;;;;;4912873;29;20047;-67
2023/12/09 12:53:57;;;;;;;9.95;7.15;;;6.60;99.90;;;;;;4912425;29;20058;-67
2023/12/09 12:56:29;;;;;;;9.93;5.57;;;6.60;99.90;;;;;;4911486;29;20048;-67
2023/12/09 12:59:02;;;;;;;7.57;5.25;;;6.70;99.90;;;;;;4912162;29;20505;-67
2023/12/09 13:01:34;;;;;;;5.53;4.25;;;6.70;99.90;;;;;;4907280;29;20044;-67
2023/12/09 13:04:01;;;;;;;9.65;4.55;;;6.70;99.90;;;;;;4910456;29;20048;-67